Time;durP1;ratioP1;P1;durP2;ratioP2;P2;SDS_P1;SDS_P2;PMS_P1;PMS_P2;Temp;Humidity;BMP_temperature;BMP_pressure;BME280_temperature;BME280_humidity;BME280_pressure;Samples;Min_cycle;Max_cycle;Signal;HPM_P1;HPM_P2
2021/01/25 00:01:04;;;;;;;26.27;13.90;;;;;;;7.67;77.55;98070.75;1778479;79;21123;-43
2021/01/25 00:03:33;;;;;;;36.50;15.08;;;;;;;7.67;77.51;98076.14;1785044;79;21125;-43
2021/01/25 00:06:02;;;;;;;34.35;15.90;;;;;;;7.66;77.48;98074.58;1780528;80;21215;-43
2021/01/25 00:08:31;;;;;;;22.30;13.55;;;;;;;7.62;77.47;98078.60;1780362;79;21397;-43
2021/01/25 00:11:01;;;;;;;20.43;13.72;;;;;;;7.55;77.59;98079.12;1796334;78;21202;-43
2021/01/25 00:13:29;;;;;;;28.07;14.15;;;;;;;7.58;77.45;98085.11;1809196;78;21138;-43
2021/01/25 00:15:58;;;;;;;39.40;14.30;;;;;;;7.54;77.51;98081.61;1812813;78;21007;-43
2021/01/25 00:18:26;;;;;;;34.63;13.95;;;;;;;7.51;77.68;98080.98;1823173;77;21162;-43
2021/01/25 00:20:54;;;;;;;22.50;13.50;;;;;;;7.51;77.75;98079.06;1803680;77;21301;-43
2021/01/25 00:23:23;;;;;;;22.67;13.95;;;;;;;7.56;77.60;98072.55;1794598;77;21035;-43
2021/01/25 00:25:54;;;;;;;23.73;13.40;;;;;;;7.61;77.43;98074.92;1792324;78;21158;-43
2021/01/25 00:28:22;;;;;;;43.48;15.38;;;;;;;7.69;77.24;98065.77;1794548;78;21030;-43
2021/01/25 00:30:51;;;;;;;33.50;15.50;;;;;;;7.71;77.13;98055.36;1817558;77;21600;-43
2021/01/25 00:33:19;;;;;;;29.85;14.65;;;;;;;7.68;77.06;98045.33;1756659;81;21432;-43
2021/01/25 00:35:50;;;;;;;18.98;13.25;;;;;;;7.62;77.05;98040.06;1742751;80;21413;-43
2021/01/25 00:38:18;;;;;;;19.37;13.30;;;;;;;7.60;77.16;98031.59;1776419;80;21075;-43
2021/01/25 00:40:47;;;;;;;30.45;14.03;;;;;;;7.62;77.13;98027.36;1760688;80;21164;-43
2021/01/25 00:43:15;;;;;;;35.05;14.87;;;;;;;7.62;77.02;98013.88;1779443;80;21202;-43
2021/01/25 00:45:43;;;;;;;26.00;14.83;;;;;;;7.62;76.98;98021.19;1750313;80;22111;-43
2021/01/25 00:48:12;;;;;;;24.18;12.93;;;;;;;7.60;76.97;98026.94;1721769;83;22206;-44
2021/01/25 00:50:41;;;;;;;18.15;12.88;;;;;;;7.60;76.99;98030.98;1754362;80;21157;-43
2021/01/25 00:53:09;;;;;;;26.40;14.13;;;;;;;7.65;76.92;98031.25;1764904;80;21601;-43
2021/01/25 00:55:38;;;;;;;28.62;13.53;;;;;;;7.71;76.83;98028.39;1726284;81;21208;-43
2021/01/25 00:58:06;;;;;;;26.27;14.28;;;;;;;7.71;76.70;98029.73;1782878;80;22135;-43
2021/01/25 01:00:35;;;;;;;19.77;14.07;;;;;;;7.69;76.62;98030.12;1757658;80;21210;-43
2021/01/25 01:03:04;;;;;;;16.37;12.85;;;;;;;7.69;76.53;98028.01;1757781;80;21135;-43
2021/01/25 01:05:32;;;;;;;21.40;13.78;;;;;;;7.72;76.24;98021.28;1764392;80;21790;-43
2021/01/25 01:08:02;;;;;;;30.60;14.95;;;;;;;7.73;76.15;98020.71;1761467;80;21229;-43
2021/01/25 01:10:30;;;;;;;;;;;;;;;7.67;76.06;98020.84;1715196;81;21646;-43
2021/01/25 01:12:58;;;;;;;24.77;14.13;;;;;;;7.63;76.15;98027.56;1723976;81;20295;-43
2021/01/25 01:15:27;;;;;;;17.70;13.53;;;;;;;7.55;76.37;98021.14;1746014;81;21182;-43
2021/01/25 01:17:55;;;;;;;20.63;13.27;;;;;;;7.60;76.21;98015.41;1764612;79;21194;-44
2021/01/25 01:20:24;;;;;;;33.40;14.47;;;;;;;7.65;76.07;98011.77;1748019;79;21102;-43
2021/01/25 01:22:54;;;;;;;33.50;14.15;;;;;;;7.64;76.00;98017.55;1757844;79;21162;-43
2021/01/25 01:25:24;;;;;;;28.45;14.90;;;;;;;7.62;76.09;98014.45;1756669;79;21210;-43
2021/01/25 01:27:52;;;;;;;18.07;13.65;;;;;;;7.61;76.05;98014.23;1759502;80;22138;-43
2021/01/25 01:30:21;;;;;;;17.57;13.55;;;;;;;7.57;76.09;98018.26;1750716;79;21731;-43
2021/01/25 01:32:50;;;;;;;23.87;14.25;;;;;;;7.64;76.06;98016.20;1770364;79;21103;-43
2021/01/25 01:35:18;;;;;;;26.30;14.18;;;;;;;7.66;75.97;98011.20;1769787;79;22111;-43
2021/01/25 01:37:46;;;;;;;28.02;13.88;;;;;;;7.63;76.10;98014.65;1758545;79;21162;-43
2021/01/25 01:40:15;;;;;;;22.40;13.53;;;;;;;7.62;76.19;98007.13;1765301;79;21333;-43
2021/01/25 01:42:45;;;;;;;19.10;13.62;;;;;;;7.65;76.17;98005.63;1771423;79;21327;-43
2021/01/25 01:45:14;;;;;;;20.95;14.05;;;;;;;7.67;76.08;98007.36;1765345;79;21149;-43
2021/01/25 01:47:42;;;;;;;21.80;15.23;;;;;;;7.67;76.07;98008.14;1739341;82;21215;-43
2021/01/25 01:50:12;;;;;;;40.55;14.75;;;;;;;7.65;76.16;98007.72;1749467;79;21923;-43
2021/01/25 01:52:41;;;;;;;40.35;16.05;;;;;;;7.63;76.18;98009.25;1759063;79;21640;-43
2021/01/25 01:55:11;;;;;;;23.75;14.83;;;;;;;7.61;76.23;98020.98;1739800;79;21146;-43
2021/01/25 01:57:39;;;;;;;14.53;11.03;;;;;;;7.58;76.17;98015.77;1778490;80;21187;-43
2021/01/25 02:00:10;;;;;;;22.17;14.33;;;;;;;7.61;76.01;98019.63;1762281;79;21272;-43
2021/01/25 02:02:41;;;;;;;25.68;14.43;;;;;;;7.59;76.08;98025.98;1772024;79;21202;-43
2021/01/25 02:05:12;;;;;;;21.73;13.72;;;;;;;7.23;76.04;97973.06;1747442;79;21190;-43
2021/01/25 02:07:41;;;;;;;21.48;14.68;;;;;;;7.52;76.17;98028.60;1775866;79;21139;-43
2021/01/25 02:10:11;;;;;;;18.87;13.62;;;;;;;7.56;76.20;98014.58;1775995;78;21135;-43
2021/01/25 02:12:40;;;;;;;24.30;12.80;;;;;;;7.62;76.08;98007.70;1748146;80;21387;-43
2021/01/25 02:15:10;;;;;;;32.58;15.00;;;;;;;7.67;76.02;98010.06;1786954;77;21151;-43
2021/01/25 02:17:38;;;;;;;25.57;14.70;;;;;;;7.66;75.99;98011.20;1787895;77;21193;-43
2021/01/25 02:20:11;;;;;;;40.03;13.38;;;;;;;7.62;75.97;98015.22;1786025;79;21169;-43
2021/01/25 02:23:03;;;;;;;20.00;13.65;;;;;;;7.57;76.13;98024.22;1788587;77;21168;-43
2021/01/25 02:26:13;;;;;;;19.37;11.90;;;;;;;7.54;76.34;98023.62;1770461;79;21358;-43
2021/01/25 02:28:41;;;;;;;22.40;13.58;;;;;;;7.56;76.25;98018.63;1782988;78;21172;-43
2021/01/25 02:31:11;;;;;;;26.12;13.43;;;;;;;7.52;76.39;98021.86;1782071;79;21150;-43
2021/01/25 02:33:46;;;;;;;24.10;12.53;;;;;;;7.48;76.52;98019.70;1782668;78;21171;-43
2021/01/25 02:36:15;;;;;;;18.85;12.45;;;;;;;7.47;76.58;98022.20;1780732;80;21171;-43
2021/01/25 02:38:46;;;;;;;16.73;12.23;;;;;;;7.45;76.54;98028.55;1789113;79;21204;-43
2021/01/25 02:41:15;;;;;;;23.10;12.75;;;;;;;7.43;76.53;98026.99;1798296;77;21142;-43
2021/01/25 02:43:44;;;;;;;17.17;12.53;;;;;;;7.42;76.62;98033.52;1804602;79;21127;-43
2021/01/25 02:46:13;;;;;;;20.68;13.70;;;;;;;7.38;76.72;98036.77;1784074;79;21052;-43
2021/01/25 02:48:42;;;;;;;19.57;12.73;;;;;;;7.30;76.83;98028.41;1776619;77;21032;-43
2021/01/25 02:51:10;;;;;;;15.98;11.68;;;;;;;7.26;76.96;98029.52;1796931;77;23244;-43
2021/01/25 02:53:39;;;;;;;16.42;12.05;;;;;;;7.26;76.94;98041.05;1767506;79;21569;-43
2021/01/25 02:56:08;;;;;;;19.87;12.53;;;;;;;7.27;76.99;98032.39;1792378;78;21684;-43
2021/01/25 02:58:36;;;;;;;19.80;13.40;;;;;;;7.25;77.14;98037.40;1809992;79;21695;-43
2021/01/25 03:01:06;;;;;;;18.92;12.90;;;;;;;7.23;77.21;98036.98;1742552;80;21194;-43
2021/01/25 03:03:35;;;;;;;15.68;12.33;;;;;;;7.26;77.18;98043.75;1778688;79;21158;-43
2021/01/25 03:06:03;;;;;;;16.60;12.23;;;;;;;7.33;77.06;98041.14;1730318;80;21166;-43
2021/01/25 03:08:31;;;;;;;19.23;13.65;;;;;;;7.38;76.88;98035.42;1747299;80;21018;-43
2021/01/25 03:10:59;;;;;;;18.65;14.00;;;;;;;7.38;76.86;98034.07;1791953;77;21142;-43
2021/01/25 03:13:28;;;;;;;19.42;14.43;;;;;;;7.39;76.80;98032.93;1774362;79;21106;-43
2021/01/25 03:15:57;;;;;;;17.67;12.43;;;;;;;7.35;76.67;98026.73;1778357;79;21194;-43
2021/01/25 03:18:28;;;;;;;15.32;12.23;;;;;;;7.35;76.61;98023.26;1770537;81;21170;-43
2021/01/25 03:20:56;;;;;;;16.35;13.30;;;;;;;7.36;76.56;98022.87;1783380;79;21139;-43
2021/01/25 03:25:42;;;;;;;19.00;13.55;;;;;;;7.45;76.48;98009.67;1835076;76;22316;-43
2021/01/25 03:28:11;;;;;;;17.02;12.58;;;;;;;7.33;76.57;98014.75;1797346;79;21652;-43
2021/01/25 03:30:40;;;;;;;16.62;12.43;;;;;;;7.35;76.48;98018.64;1787848;78;21366;-43
2021/01/25 03:33:08;;;;;;;19.75;12.98;;;;;;;7.40;76.31;98007.52;1791264;79;20999;-43
2021/01/25 03:35:40;;;;;;;16.90;13.00;;;;;;;7.47;76.26;98008.72;1790449;78;21607;-43
2021/01/25 03:38:08;;;;;;;16.42;12.88;;;;;;;7.46;76.18;98001.77;1809039;79;20960;-43
2021/01/25 03:40:36;;;;;;;20.08;14.25;;;;;;;7.43;76.14;97997.91;1808553;79;21263;-43
2021/01/25 03:43:04;;;;;;;17.92;13.30;;;;;;;7.17;76.18;97965.11;1803910;79;21133;-43
2021/01/25 03:45:33;;;;;;;14.90;11.90;;;;;;;7.43;76.00;97995.98;1816704;79;21047;-43
2021/01/25 03:48:01;;;;;;;15.78;12.68;;;;;;;7.45;75.88;98000.23;1803738;79;21000;-43
2021/01/25 03:50:30;;;;;;;16.65;12.30;;;;;;;7.45;75.91;97994.84;1803791;79;21089;-43
2021/01/25 03:53:03;;;;;;;18.05;13.38;;;;;;;7.42;76.00;97993.66;1800446;79;21146;-43
2021/01/25 03:55:31;;;;;;;15.98;13.05;;;;;;;7.36;75.97;97989.16;1806523;78;21604;-43
2021/01/25 03:57:59;;;;;;;14.70;11.45;;;;;;;7.34;76.07;97991.48;1798818;79;21015;-43
2021/01/25 04:00:28;;;;;;;14.95;12.30;;;;;;;7.41;75.97;97992.09;1810637;78;21125;-43
2021/01/25 04:02:56;;;;;;;16.07;12.25;;;;;;;7.42;75.90;97994.43;1795590;79;21814;-43
2021/01/25 04:05:25;;;;;;;15.30;12.58;;;;;;;7.41;76.03;98002.31;1784591;80;21169;-43
2021/01/25 04:07:53;;;;;;;16.10;12.35;;;;;;;7.36;76.07;97998.60;1813876;79;21361;-43
2021/01/25 04:10:21;;;;;;;12.82;10.98;;;;;;;7.36;76.00;97993.21;1791765;79;21157;-43
2021/01/25 04:12:49;;;;;;;15.63;12.82;;;;;;;7.37;75.93;97990.72;1784486;80;21143;-43
2021/01/25 04:15:18;;;;;;;16.48;13.08;;;;;;;7.38;75.87;97985.54;1791112;79;21160;-43
2021/01/25 04:17:46;;;;;;;19.05;13.48;;;;;;;7.39;76.01;97984.40;1797398;79;21102;-43
2021/01/25 04:20:15;;;;;;;16.40;12.90;;;;;;;7.42;75.92;97991.73;1784649;80;21195;-43
2021/01/25 04:22:43;;;;;;;15.30;12.33;;;;;;;7.43;75.81;97996.55;1797742;79;21045;-43
2021/01/25 04:25:11;;;;;;;17.95;12.95;;;;;;;7.44;75.52;97998.11;1788438;79;21119;-43
2021/01/25 04:27:39;;;;;;;19.82;12.73;;;;;;;7.43;75.35;97997.33;1784101;79;21494;-43
2021/01/25 04:30:10;;;;;;;16.37;12.18;;;;;;;7.38;75.27;97996.89;1791112;79;21121;-43
2021/01/25 04:32:39;;;;;;;14.33;11.22;;;;;;;7.32;75.35;97997.02;1799818;79;21191;-43
2021/01/25 04:35:11;;;;;;;14.98;11.43;;;;;;;7.28;75.45;97993.52;1787622;79;21169;-43
2021/01/25 04:37:40;;;;;;;11.85;9.60;;;;;;;7.25;75.49;97987.53;1783994;80;21190;-43
2021/01/25 04:40:10;;;;;;;13.93;10.43;;;;;;;7.27;75.36;97984.66;1807608;79;21628;-43
2021/01/25 04:42:39;;;;;;;;;;;;;;;7.25;75.39;97979.45;1809818;79;21032;-43
2021/01/25 04:45:09;;;;;;;12.65;10.15;;;;;;;7.19;75.43;97979.57;1784033;79;22258;-43
2021/01/25 04:47:42;;;;;;;12.60;9.95;;;;;;;7.01;75.82;97982.09;1804267;79;21103;-43
2021/01/25 04:50:11;;;;;;;12.00;9.40;;;;;;;6.98;75.98;97989.55;1805889;79;21137;-43
2021/01/25 04:52:41;;;;;;;11.93;9.40;;;;;;;7.06;75.95;97986.38;1793475;78;21542;-43
2021/01/25 04:55:11;;;;;;;10.95;9.15;;;;;;;7.05;75.91;97977.52;1795548;79;21106;-43
2021/01/25 04:57:39;;;;;;;11.85;9.35;;;;;;;7.02;75.91;97979.58;1811496;77;22093;-43
2021/01/25 05:00:09;;;;;;;10.98;8.75;;;;;;;6.97;76.08;97979.94;1814552;77;21109;-43
2021/01/25 05:02:39;;;;;;;9.40;7.80;;;;;;;6.94;76.13;97976.05;1809966;79;21441;-43
2021/01/25 05:05:09;;;;;;;11.60;8.17;;;;;;;6.95;76.08;97981.64;1782495;79;21126;-43
2021/01/25 05:07:37;;;;;;;11.95;9.23;;;;;;;7.02;75.91;97983.63;1792611;79;21130;-43
2021/01/25 05:10:08;;;;;;;12.45;10.03;;;;;;;7.03;75.84;97976.31;1804373;79;21349;-43
2021/01/25 05:12:47;;;;;;;10.70;8.98;;;;;;;6.97;75.85;97975.30;1803290;79;21011;-43
2021/01/25 05:15:29;;;;;;;11.12;8.90;;;;;;;6.95;75.84;97975.48;1752146;80;21155;-43
2021/01/25 05:18:07;;;;;;;9.28;7.90;;;;;;;6.92;75.93;97984.31;1743954;81;21149;-43
2021/01/25 05:20:35;;;;;;;11.45;9.28;;;;;;;6.92;75.86;97981.61;1754849;81;21133;-43
2021/01/25 05:23:14;;;;;;;9.63;8.43;;;;;;;6.89;75.88;97994.45;1806141;79;21197;-43
2021/01/25 05:25:43;;;;;;;9.00;7.65;;;;;;;6.85;75.89;97992.30;1784972;79;21157;-43
2021/01/25 05:28:16;;;;;;;8.50;6.90;;;;;;;6.77;75.81;97986.63;1786433;79;20996;-43
2021/01/25 05:30:44;;;;;;;7.75;6.95;;;;;;;6.78;75.94;97983.55;1787754;79;21145;-43
2021/01/25 05:33:12;;;;;;;8.05;7.00;;;;;;;6.85;75.83;97989.60;1786564;78;21130;-43
2021/01/25 05:35:43;;;;;;;9.18;7.78;;;;;;;6.89;75.78;97999.84;1804356;79;22121;-43
2021/01/25 05:38:12;;;;;;;9.73;7.67;;;;;;;6.84;75.73;97986.13;1794324;79;21113;-43
2021/01/25 05:40:40;;;;;;;8.65;7.72;;;;;;;6.82;75.86;97989.00;1799631;79;21516;-43
2021/01/25 05:43:13;;;;;;;8.90;7.53;;;;;;;6.81;75.92;97995.53;1802092;79;21173;-43
2021/01/25 05:45:41;;;;;;;7.00;6.30;;;;;;;6.81;75.99;98000.34;1792968;77;20987;-43
2021/01/25 05:48:12;;;;;;;8.60;6.90;;;;;;;6.87;75.77;98007.53;1808232;79;21189;-43
2021/01/25 05:50:42;;;;;;;7.97;7.08;;;;;;;6.89;75.73;98003.31;1796578;79;21134;-43
2021/01/25 05:53:13;;;;;;;9.28;8.13;;;;;;;6.88;75.68;97990.20;1783094;79;21162;-43
2021/01/25 05:55:43;;;;;;;9.05;7.62;;;;;;;6.85;75.74;97990.38;1786396;79;21137;-43
2021/01/25 05:58:12;;;;;;;9.58;7.05;;;;;;;6.83;75.77;97992.66;1802246;79;21584;-43
2021/01/25 06:00:41;;;;;;;8.30;7.42;;;;;;;6.84;75.73;97985.35;1815424;79;21364;-43
2021/01/25 06:03:10;;;;;;;9.55;7.85;;;;;;;6.88;75.73;97983.47;1799700;79;21154;-43
2021/01/25 06:05:41;;;;;;;8.88;7.92;;;;;;;6.89;75.70;97987.15;1810818;79;21144;-43
2021/01/25 06:08:44;;;;;;;12.50;8.73;;;;;;;6.85;75.66;97982.30;1809534;79;21174;-43
2021/01/25 06:11:26;;;;;;;10.68;8.68;;;;;;;6.81;75.73;97973.98;1814518;78;21158;-44
2021/01/25 06:14:10;;;;;;;9.63;7.67;;;;;;;6.87;75.79;97966.53;1831932;78;22847;-43
2021/01/25 06:16:38;;;;;;;10.82;8.55;;;;;;;6.86;75.61;97972.30;1777205;79;21552;-43
2021/01/25 06:19:09;;;;;;;13.28;8.93;;;;;;;6.82;75.67;97978.23;1776425;80;22280;-43
2021/01/25 06:21:40;;;;;;;10.00;8.45;;;;;;;6.77;75.74;97972.59;1777532;79;20944;-43
2021/01/25 06:24:10;;;;;;;10.60;8.38;;;;;;;6.73;75.79;97969.06;1776284;80;21589;-43
2021/01/25 06:26:39;;;;;;;10.07;8.93;;;;;;;6.73;75.86;97978.48;1751582;79;20968;-43
2021/01/25 06:29:08;;;;;;;11.50;9.10;;;;;;;6.75;75.95;97974.09;1777250;79;21268;-43
2021/01/25 06:31:40;;;;;;;16.65;9.80;;;;;;;6.71;75.98;97972.71;1697612;83;22157;-43
2021/01/25 06:34:12;;;;;;;10.80;8.73;;;;;;;6.70;76.16;97966.34;1721838;82;21056;-43
2021/01/25 06:36:42;;;;;;;10.08;8.63;;;;;;;6.70;76.17;97958.26;1755964;81;20995;-43
2021/01/25 06:39:11;;;;;;;10.53;8.30;;;;;;;6.70;76.12;97952.88;1714458;82;21019;-43
2021/01/25 06:41:41;;;;;;;12.07;9.60;;;;;;;6.77;76.02;97948.92;1729995;82;21150;-43
2021/01/25 06:44:11;;;;;;;12.03;9.98;;;;;;;6.76;75.91;97950.84;1758500;81;21194;-43
2021/01/25 06:46:42;;;;;;;12.50;9.60;;;;;;;6.71;76.00;97959.81;1722357;82;21208;-43
2021/01/25 06:49:10;;;;;;;10.63;8.13;;;;;;;6.68;76.05;97957.87;1725755;82;21162;-43
2021/01/25 06:51:44;;;;;;;11.38;8.60;;;;;;;6.65;75.93;97953.20;1720930;82;21068;-43
2021/01/25 06:54:12;;;;;;;11.78;8.93;;;;;;;6.66;76.01;97960.14;1755745;81;21564;-43
2021/01/25 06:57:00;;;;;;;10.53;9.08;;;;;;;6.59;76.23;97976.20;1751143;81;22266;-43
2021/01/25 06:59:30;;;;;;;8.23;6.57;;;;;;;6.51;76.42;97979.38;1749211;80;21430;-44
2021/01/25 07:02:00;;;;;;;8.50;7.60;;;;;;;6.46;76.41;97972.97;1736418;81;21149;-44
2021/01/25 07:04:30;;;;;;;9.40;8.20;;;;;;;6.45;76.42;97980.84;1686447;83;21680;-45
2021/01/25 07:06:59;;;;;;;10.93;8.35;;;;;;;6.39;76.52;97976.94;1712775;83;21186;-44
2021/01/25 07:09:30;;;;;;;10.10;8.13;;;;;;;6.33;76.64;97979.17;1691849;82;21198;-44
2021/01/25 07:12:02;;;;;;;9.65;7.75;;;;;;;6.33;76.75;97982.42;1701632;82;21473;-45
2021/01/25 07:14:32;;;;;;;11.95;8.90;;;;;;;6.35;76.68;97975.52;1717759;82;20937;-45
2021/01/25 07:17:00;;;;;;;11.25;8.90;;;;;;;6.40;76.64;97951.55;1717159;83;21711;-44
2021/01/25 07:19:30;;;;;;;11.48;8.95;;;;;;;6.37;76.53;97946.91;1691254;83;21063;-45
2021/01/25 07:21:58;;;;;;;9.88;7.90;;;;;;;6.32;76.75;97968.19;1717204;82;21198;-44
2021/01/25 07:24:27;;;;;;;9.65;8.58;;;;;;;6.36;76.74;97970.92;1740749;82;21202;-45
2021/01/25 07:26:59;;;;;;;10.82;8.53;;;;;;;6.39;76.55;97976.34;1745346;81;21198;-44
2021/01/25 07:29:27;;;;;;;12.20;10.18;;;;;;;6.37;76.54;97978.64;1733332;82;21178;-45
2021/01/25 07:31:58;;;;;;;12.07;8.90;;;;;;;6.33;76.70;97975.13;1690561;83;21675;-44
2021/01/25 07:34:30;;;;;;;9.53;8.48;;;;;;;6.28;76.83;97957.17;1716918;82;21375;-44
2021/01/25 07:36:58;;;;;;;11.67;8.73;;;;;;;6.29;76.88;97954.70;1728048;82;21633;-44
2021/01/25 07:39:27;;;;;;;11.83;9.63;;;;;;;6.34;76.86;97959.76;1716591;83;22263;-45
2021/01/25 07:41:56;;;;;;;10.33;8.10;;;;;;;6.33;76.76;97944.17;1737747;82;21122;-44
2021/01/25 07:44:25;;;;;;;12.00;8.73;;;;;;;6.33;76.76;97944.17;1745162;82;21872;-44
2021/01/25 07:46:58;;;;;;;11.90;9.05;;;;;;;6.32;76.92;97943.19;1716676;82;21167;-44
2021/01/25 07:49:27;;;;;;;10.82;8.10;;;;;;;6.32;76.95;97931.86;1716152;82;21889;-44
2021/01/25 07:51:55;;;;;;;12.25;9.60;;;;;;;6.37;76.72;97939.61;1717524;82;21170;-44
2021/01/25 07:54:27;;;;;;;12.80;10.10;;;;;;;6.36;76.76;97928.63;1717036;82;21588;-44
2021/01/25 07:56:59;;;;;;;11.68;8.70;;;;;;;6.36;76.89;97917.87;1719236;82;21118;-44
2021/01/25 07:59:35;;;;;;;11.15;8.58;;;;;;;6.37;76.83;97905.97;1729267;80;21361;-44
2021/01/25 08:02:08;;;;;;;11.60;9.00;;;;;;;6.43;76.76;97901.81;1716475;82;21190;-44
2021/01/25 08:04:38;;;;;;;10.25;8.78;;;;;;;6.42;76.56;97904.86;1730872;82;21142;-44
2021/01/25 08:07:07;;;;;;;10.45;8.73;;;;;;;6.41;76.69;97901.96;1744156;82;21186;-44
2021/01/25 08:09:38;;;;;;;9.85;7.70;;;;;;;6.42;76.60;97924.48;1719536;82;21166;-44
2021/01/25 08:12:07;;;;;;;11.75;8.53;;;;;;;6.48;76.35;97932.45;1740333;81;21203;-44
2021/01/25 08:14:47;;;;;;;11.78;9.75;;;;;;;6.52;76.39;97929.22;1746778;81;21197;-44
2021/01/25 08:17:21;;;;;;;11.48;8.98;;;;;;;6.55;76.34;97928.48;1734026;82;21202;-44
2021/01/25 08:20:10;;;;;;;13.18;8.78;;;;;;;6.54;76.29;97922.88;1734084;82;21122;-44
2021/01/25 08:22:59;;;;;;;10.13;8.50;;;;;;;6.58;76.19;97916.78;1736813;81;21165;-45
2021/01/25 08:25:29;;;;;;;10.78;8.83;;;;;;;6.62;76.02;97895.48;1763321;81;21386;-44
2021/01/25 08:28:14;;;;;;;12.23;10.25;;;;;;;6.59;75.95;97902.93;1758164;81;21213;-44
2021/01/25 08:30:47;;;;;;;12.30;10.15;;;;;;;6.55;76.22;97899.43;1708531;82;21201;-44
2021/01/25 08:33:36;;;;;;;12.45;9.30;;;;;;;6.52;76.18;97892.88;1733959;82;21066;-45
2021/01/25 08:36:09;;;;;;;13.03;10.72;;;;;;;6.58;76.11;97897.37;1736468;81;21161;-44
2021/01/25 08:38:43;;;;;;;16.52;11.53;;;;;;;6.60;76.23;97896.98;1745787;81;21209;-44
2021/01/25 08:41:27;;;;;;;13.85;9.70;;;;;;;6.56;76.23;97907.72;1749441;81;21158;-45
2021/01/25 08:44:05;;;;;;;11.73;9.15;;;;;;;6.60;76.39;97905.05;1846755;76;22215;-44
2021/01/25 08:46:38;;;;;;;12.35;10.38;;;;;;;6.61;76.29;97901.22;1816785;78;20996;-44
2021/01/25 08:49:22;;;;;;;12.73;10.63;;;;;;;6.64;76.27;97895.09;1797190;77;22326;-44
2021/01/25 08:52:04;;;;;;;12.18;9.28;;;;;;;6.62;76.29;97892.79;1754731;80;21008;-45
2021/01/25 08:54:38;;;;;;;11.40;10.03;;;;;;;6.66;76.21;97890.13;1806210;79;22080;-45
2021/01/25 08:57:23;;;;;;;12.35;10.28;;;;;;;6.69;76.00;97878.03;1799402;79;21628;-45
2021/01/25 08:59:52;;;;;;;13.75;11.53;;;;;;;6.70;76.04;97888.23;1810007;79;20965;-45
2021/01/25 09:02:23;;;;;;;13.50;10.20;;;;;;;6.65;75.99;97876.45;1787683;79;23520;-45
2021/01/25 09:04:52;;;;;;;13.38;10.95;;;;;;;6.61;76.15;97862.18;1784710;80;21583;-45
2021/01/25 09:07:23;;;;;;;14.70;12.13;;;;;;;6.69;76.15;97866.48;1784590;80;21004;-45
2021/01/25 09:09:53;;;;;;;15.40;12.05;;;;;;;6.70;76.11;97870.73;1799070;79;21134;-45
2021/01/25 09:12:23;;;;;;;13.88;11.20;;;;;;;6.67;76.18;97866.09;1784636;79;21173;-45
2021/01/25 09:14:51;;;;;;;15.85;11.53;;;;;;;6.69;76.20;97838.21;1787760;79;21355;-45
2021/01/25 09:17:24;;;;;;;16.02;12.63;;;;;;;6.69;76.21;97844.94;1797455;79;21125;-45
2021/01/25 09:19:52;;;;;;;16.07;12.73;;;;;;;6.67;76.29;97835.91;1793853;79;21138;-43
2021/01/25 09:22:22;;;;;;;16.27;12.13;;;;;;;6.64;76.42;97842.02;1795875;79;21127;-46
2021/01/25 09:24:52;;;;;;;13.90;11.55;;;;;;;6.67;76.53;97837.83;1796883;79;21130;-46
2021/01/25 09:27:21;;;;;;;15.45;12.65;;;;;;;6.74;76.39;97823.06;1792551;79;25056;-47
2021/01/25 09:29:51;;;;;;;;;;;;;;;6.74;76.32;97827.10;1803995;79;21197;-44
2021/01/25 09:32:22;;;;;;;19.98;13.70;;;;;;;6.70;76.45;97827.08;1807698;79;20148;-44
2021/01/25 09:34:54;;;;;;;19.85;14.03;;;;;;;6.63;76.79;97834.33;1814550;79;21015;-44
2021/01/25 09:37:22;;;;;;;;;;;;;;;6.68;76.79;97827.26;1808554;79;21687;-44
2021/01/25 09:39:52;;;;;;;20.00;14.43;;;;;;;6.71;76.76;97823.81;1801733;79;21123;-45
2021/01/25 09:42:22;;;;;;;;;;;;;;;6.60;77.12;97826.41;1789340;78;21169;-44
2021/01/25 09:44:52;;;;;;;20.10;14.40;;;;;;;6.63;77.12;97820.30;1794287;78;20277;-45
2021/01/25 09:47:23;;;;;;;19.67;14.38;;;;;;;6.63;77.22;97810.88;1810672;78;21011;-44
2021/01/25 09:49:54;;;;;;;25.05;16.02;;;;;;;6.71;77.17;97813.05;1796465;78;21849;-44
2021/01/25 09:52:22;;;;;;;21.97;13.90;;;;;;;6.72;76.97;97799.78;1792754;78;21389;-45
2021/01/25 09:54:51;;;;;;;20.27;14.68;;;;;;;6.69;77.04;97799.94;1789859;80;20979;-44
2021/01/25 09:57:19;;;;;;;20.85;14.85;;;;;;;6.73;76.98;97791.91;1802764;78;21149;-45
2021/01/25 09:59:56;;;;;;;22.95;14.93;;;;;;;6.71;76.97;97790.16;1825806;78;21288;-44
2021/01/25 10:02:24;;;;;;;24.20;14.65;;;;;;;6.68;77.04;97772.05;1803374;78;21400;-44
2021/01/25 10:04:53;;;;;;;23.12;15.32;;;;;;;6.68;77.11;97787.61;1799003;78;21258;-44
2021/01/25 10:07:21;;;;;;;20.68;15.18;;;;;;;6.73;77.09;97783.23;1805260;78;21177;-44
2021/01/25 10:09:54;;;;;;;23.52;15.70;;;;;;;6.74;76.97;97769.98;1810854;78;21560;-44
2021/01/25 10:12:22;;;;;;;19.20;13.90;;;;;;;6.74;76.98;97767.28;1798619;78;21144;-44
2021/01/25 10:14:56;;;;;;;24.47;15.58;;;;;;;6.72;76.86;97745.92;1810721;78;21137;-44
2021/01/25 10:17:31;;;;;;;25.20;15.40;;;;;;;6.75;76.88;97742.47;1827534;78;21360;-44
2021/01/25 10:20:01;;;;;;;22.65;15.25;;;;;;;6.73;76.88;97739.40;1817892;78;21583;-44
2021/01/25 10:22:30;;;;;;;21.82;14.03;;;;;;;6.68;76.80;97731.66;1811385;78;21403;-44
2021/01/25 10:24:58;;;;;;;22.07;14.80;;;;;;;6.70;76.83;97723.97;1807816;78;21113;-44
2021/01/25 10:27:27;;;;;;;25.43;15.23;;;;;;;6.37;76.73;97667.77;1809215;78;21151;-43
2021/01/25 10:29:56;;;;;;;23.77;14.25;;;;;;;6.72;76.68;97708.22;1802271;78;21533;-44
2021/01/25 10:32:26;;;;;;;19.70;12.83;;;;;;;6.70;76.82;97707.81;1811238;78;21055;-43
2021/01/25 10:34:55;;;;;;;22.32;14.58;;;;;;;6.72;76.75;97710.91;1808504;78;21420;-44
2021/01/25 10:37:23;;;;;;;22.47;14.73;;;;;;;6.75;76.67;97696.69;1782516;79;21496;-44
2021/01/25 10:39:51;;;;;;;22.98;15.45;;;;;;;6.74;76.74;97703.22;1795875;78;21138;-44
2021/01/25 10:42:20;;;;;;;22.05;14.18;;;;;;;6.70;76.83;97703.77;1795916;78;21612;-43
2021/01/25 10:44:48;;;;;;;21.87;13.72;;;;;;;6.64;76.95;97698.53;1782243;79;21154;-44
2021/01/25 10:47:21;;;;;;;21.40;13.98;;;;;;;6.67;76.97;97696.45;1788122;79;21039;-44
2021/01/25 10:49:50;;;;;;;21.45;13.03;;;;;;;6.64;77.03;97685.84;1784526;79;21003;-44
2021/01/25 10:52:18;;;;;;;19.48;12.53;;;;;;;6.60;77.16;97693.69;1787925;79;21154;-44
2021/01/25 10:54:49;;;;;;;20.10;12.68;;;;;;;6.63;77.23;97686.23;1803211;79;22146;-44
2021/01/25 10:57:18;;;;;;;19.95;13.45;;;;;;;6.61;77.25;97665.62;1793918;79;21178;-44
2021/01/25 10:59:50;;;;;;;17.87;11.73;;;;;;;6.54;77.49;97665.77;1808591;79;21000;-44
2021/01/25 11:02:19;;;;;;;19.17;12.53;;;;;;;6.51;77.68;97659.80;1796168;79;21181;-44
2021/01/25 11:04:47;;;;;;;21.60;12.15;;;;;;;6.57;77.60;97650.02;1788606;79;21090;-44
2021/01/25 11:07:17;;;;;;;18.45;12.10;;;;;;;6.48;77.84;97643.05;1797667;79;21484;-44
2021/01/25 11:09:46;;;;;;;19.77;10.87;;;;;;;6.49;77.92;97639.19;1792752;79;21165;-44
2021/01/25 11:12:14;;;;;;;16.62;11.40;;;;;;;6.51;78.21;97640.95;1784735;79;22217;-44
2021/01/25 11:14:42;;;;;;;16.40;10.68;;;;;;;6.53;78.24;97648.06;1796111;79;21747;-44
2021/01/25 11:17:12;;;;;;;17.00;9.93;;;;;;;6.52;78.43;97647.11;1784123;79;21162;-44
2021/01/25 11:19:44;;;;;;;17.55;10.23;;;;;;;6.51;78.50;97624.80;1784298;79;21326;-44
2021/01/25 11:22:14;;;;;;;15.35;10.90;;;;;;;6.57;78.50;97633.88;1784493;79;21110;-44
2021/01/25 11:24:42;;;;;;;17.32;9.88;;;;;;;6.52;78.79;97633.08;1784706;79;21082;-44
2021/01/25 11:27:11;;;;;;;14.57;9.83;;;;;;;6.51;78.89;97630.19;1801327;79;21140;-44
2021/01/25 11:29:39;;;;;;;15.23;9.60;;;;;;;6.58;78.88;97612.54;1795875;79;21102;-44
2021/01/25 11:32:10;;;;;;;13.75;8.50;;;;;;;6.56;79.03;97603.48;1784340;79;21185;-44
2021/01/25 11:34:39;;;;;;;17.82;9.18;;;;;;;6.57;79.14;97608.30;1786360;79;21181;-44
2021/01/25 11:37:07;;;;;;;17.12;9.48;;;;;;;6.59;79.23;97599.25;1798986;79;21152;-44
2021/01/25 11:39:36;;;;;;;13.20;9.23;;;;;;;6.60;79.25;97600.80;1783867;80;21015;-44
2021/01/25 11:42:04;;;;;;;13.13;8.85;;;;;;;6.59;79.36;97597.91;1784205;79;21133;-44
2021/01/25 11:44:35;;;;;;;13.45;9.15;;;;;;;6.60;79.56;97594.07;1783828;79;21272;-44
2021/01/25 11:47:03;;;;;;;12.70;8.50;;;;;;;6.66;79.39;97589.88;1785487;79;20980;-44
2021/01/25 11:49:32;;;;;;;14.63;8.78;;;;;;;6.64;79.40;97588.12;1791869;79;21134;-44